createdAt,value
2023-05-24T00:00:48.841Z,54.76
2023-05-24T00:01:48.863Z,54.69
2023-05-24T00:02:48.868Z,54.71
2023-05-24T00:03:48.917Z,54.73
2023-05-24T00:04:48.846Z,54.74
2023-05-24T00:05:48.767Z,54.79
2023-05-24T00:06:48.784Z,54.81
2023-05-24T00:07:48.783Z,54.78
2023-05-24T00:08:48.769Z,54.80
2023-05-24T00:09:48.751Z,54.79
2023-05-24T00:10:48.773Z,54.74
2023-05-24T00:11:48.806Z,54.80
2023-05-24T00:12:48.738Z,54.79
2023-05-24T00:13:48.754Z,54.76
2023-05-24T00:14:48.705Z,54.74
2023-05-24T00:15:48.766Z,54.76
2023-05-24T00:16:48.810Z,54.79
2023-05-24T00:17:48.853Z,54.77
2023-05-24T00:18:48.898Z,54.79
2023-05-24T00:19:49.038Z,54.78
2023-05-24T00:20:49.062Z,54.77
2023-05-24T00:21:49.065Z,54.77
2023-05-24T00:22:49.111Z,54.81
2023-05-24T00:23:49.146Z,54.76
2023-05-24T00:24:49.204Z,54.77
2023-05-24T00:25:49.248Z,54.78
2023-05-24T00:26:49.311Z,54.81
2023-05-24T00:27:49.378Z,54.80
2023-05-24T00:28:49.418Z,54.79
2023-05-24T00:29:49.454Z,54.73
2023-05-24T00:30:49.501Z,54.72
2023-05-24T00:31:49.579Z,54.75
2023-05-24T00:32:49.676Z,54.78
2023-05-24T00:33:49.641Z,54.78
2023-05-24T00:34:49.666Z,54.77
2023-05-24T00:35:50.290Z,54.75
2023-05-24T00:36:49.803Z,54.75
2023-05-24T00:37:49.852Z,54.81
2023-05-24T00:38:49.872Z,54.79
2023-05-24T00:39:49.916Z,54.75
2023-05-24T00:40:49.997Z,54.76
2023-05-24T00:41:50.037Z,54.74
2023-05-24T00:42:50.102Z,54.73
2023-05-24T00:43:50.177Z,54.73
2023-05-24T00:44:50.173Z,54.74
2023-05-24T00:45:50.268Z,54.72
2023-05-24T00:46:50.274Z,54.70
2023-05-24T00:47:50.377Z,54.68
2023-05-24T00:48:50.379Z,54.70
2023-05-24T00:49:50.474Z,54.67
2023-05-24T00:50:50.501Z,54.67
2023-05-24T00:51:50.516Z,54.66
2023-05-24T00:52:50.601Z,54.68
2023-05-24T00:53:50.621Z,54.64
2023-05-24T00:54:50.716Z,54.65
2023-05-24T00:55:50.749Z,54.64
2023-05-24T00:56:50.791Z,54.63
2023-05-24T00:57:50.834Z,54.63
2023-05-24T00:58:50.889Z,54.61
2023-05-24T00:59:50.964Z,54.61
2023-05-24T01:00:51.011Z,54.62
2023-05-24T01:01:51.068Z,54.60
2023-05-24T01:02:51.221Z,54.65
2023-05-24T01:03:51.225Z,54.63
2023-05-24T01:04:51.192Z,54.60
2023-05-24T01:05:51.249Z,54.60
2023-05-24T01:06:51.277Z,54.61
2023-05-24T01:07:51.357Z,54.59
2023-05-24T01:08:51.401Z,54.60
2023-05-24T01:09:51.428Z,54.60
2023-05-24T01:10:51.491Z,54.60
2023-05-24T01:11:51.536Z,54.60
2023-05-24T01:12:51.589Z,54.61
2023-05-24T01:13:51.641Z,54.59
2023-05-24T01:14:51.695Z,54.59
2023-05-24T01:15:51.783Z,54.57
2023-05-24T01:16:51.873Z,54.55
2023-05-24T01:17:51.911Z,54.56
2023-05-24T01:18:51.904Z,54.59
2023-05-24T01:19:51.999Z,54.54
2023-05-24T01:20:52.014Z,54.56
2023-05-24T01:21:52.081Z,54.52
2023-05-24T01:22:52.127Z,54.48
2023-05-24T01:23:52.200Z,54.50
2023-05-24T01:24:52.248Z,54.53
2023-05-24T01:25:52.309Z,54.51
2023-05-24T01:26:52.373Z,54.49
2023-05-24T01:27:52.414Z,54.47
2023-05-24T01:28:52.463Z,54.52
2023-05-24T01:29:52.513Z,54.49
2023-05-24T01:30:52.596Z,54.45
2023-05-24T01:31:52.671Z,54.48
2023-05-24T01:32:52.812Z,54.48
2023-05-24T01:33:52.733Z,54.46
2023-05-24T01:34:52.767Z,54.48
2023-05-24T01:35:52.868Z,54.47
2023-05-24T01:36:52.881Z,54.46
2023-05-24T01:37:52.947Z,54.48
2023-05-24T01:38:53.001Z,54.46
2023-05-24T01:39:53.070Z,54.46
2023-05-24T01:40:53.090Z,54.46
2023-05-24T01:41:53.151Z,54.42
2023-05-24T01:42:53.220Z,54.42
2023-05-24T01:43:53.285Z,54.43
2023-05-24T01:44:53.316Z,54.43
2023-05-24T01:45:53.360Z,54.40
2023-05-24T01:46:53.456Z,54.43
2023-05-24T01:47:53.533Z,54.41
2023-05-24T01:48:53.484Z,54.44
2023-05-24T01:49:53.570Z,54.38
2023-05-24T01:50:53.638Z,54.43
2023-05-24T01:51:53.739Z,54.42
2023-05-24T01:52:53.764Z,54.44
2023-05-24T01:53:53.768Z,54.42
2023-05-24T01:54:53.805Z,54.40
2023-05-24T01:55:53.887Z,54.44
2023-05-24T01:56:53.935Z,54.42
2023-05-24T01:57:53.978Z,54.37
2023-05-24T01:58:54.064Z,54.37
2023-05-24T01:59:54.098Z,54.39
2023-05-24T02:00:54.214Z,54.38
2023-05-24T02:01:54.220Z,54.38
2023-05-24T02:02:54.466Z,54.39
2023-05-24T02:03:54.376Z,54.36
2023-05-24T02:04:54.385Z,54.34
2023-05-24T02:05:54.424Z,54.36
2023-05-24T02:06:54.488Z,54.36
2023-05-24T02:07:54.529Z,54.34
2023-05-24T02:08:54.600Z,54.35
2023-05-24T02:09:54.637Z,54.34
2023-05-24T02:10:54.751Z,54.32
2023-05-24T02:11:54.790Z,54.34
2023-05-24T02:12:54.833Z,54.34
2023-05-24T02:13:54.942Z,54.31
2023-05-24T02:14:54.948Z,54.27
2023-05-24T02:15:55.053Z,54.29
2023-05-24T02:16:55.089Z,54.31
2023-05-24T02:17:55.175Z,54.32
2023-05-24T02:18:55.191Z,54.32
2023-05-24T02:19:55.309Z,54.28
2023-05-24T02:20:55.289Z,54.29
2023-05-24T02:21:55.388Z,54.32
2023-05-24T02:22:55.412Z,54.32
2023-05-24T02:23:55.476Z,54.29
2023-05-24T02:24:55.533Z,54.27
2023-05-24T02:25:55.555Z,54.28
2023-05-24T02:26:55.637Z,54.31
2023-05-24T02:27:55.697Z,54.26
2023-05-24T02:28:55.753Z,54.27
2023-05-24T02:29:55.813Z,54.25
2023-05-24T02:30:55.883Z,54.27
2023-05-24T02:31:55.900Z,54.24
2023-05-24T02:32:55.990Z,54.24
2023-05-24T02:33:56.033Z,54.22
2023-05-24T02:34:56.074Z,54.23
2023-05-24T02:35:56.138Z,54.22
2023-05-24T02:36:56.206Z,54.25
2023-05-24T02:37:56.284Z,54.24
2023-05-24T02:38:56.337Z,54.23
2023-05-24T02:39:56.371Z,54.25
2023-05-24T02:40:56.436Z,54.26
2023-05-24T02:41:56.496Z,54.22
2023-05-24T02:42:56.567Z,54.21
2023-05-24T02:43:56.613Z,54.22
2023-05-24T02:44:56.675Z,54.21
2023-05-24T02:45:56.748Z,54.17
2023-05-24T02:46:56.816Z,54.21
2023-05-24T02:47:56.892Z,54.18
2023-05-24T02:48:56.910Z,54.17
2023-05-24T02:49:56.976Z,54.17
2023-05-24T02:50:56.990Z,54.17
2023-05-24T02:51:57.059Z,54.14
2023-05-24T02:52:57.119Z,54.16
2023-05-24T02:53:57.155Z,54.18
2023-05-24T02:54:57.243Z,54.14
2023-05-24T02:55:57.289Z,54.14
2023-05-24T02:56:57.323Z,54.14
2023-05-24T02:57:57.403Z,54.16
2023-05-24T02:58:57.453Z,54.17
2023-05-24T02:59:57.527Z,54.11
2023-05-24T03:00:57.596Z,54.13
2023-05-24T03:01:57.713Z,54.11
2023-05-24T03:02:57.753Z,54.16
2023-05-24T03:03:57.802Z,54.13
2023-05-24T03:04:57.770Z,54.13
2023-05-24T03:05:57.836Z,54.09
2023-05-24T03:06:57.889Z,54.10
2023-05-24T03:07:57.923Z,54.12
2023-05-24T03:08:57.986Z,54.11
2023-05-24T03:09:58.030Z,54.08
2023-05-24T03:10:58.086Z,54.07
2023-05-24T03:11:58.143Z,54.12
2023-05-24T03:12:58.195Z,54.11
2023-05-24T03:13:58.268Z,54.07
2023-05-24T03:14:58.286Z,54.08
2023-05-24T03:15:58.373Z,54.08
2023-05-24T03:16:58.386Z,54.08
2023-05-24T03:17:58.463Z,54.06
2023-05-24T03:18:58.509Z,54.04
2023-05-24T03:19:58.587Z,54.04
2023-05-24T03:20:58.625Z,54.03
2023-05-24T03:21:58.680Z,54.09
2023-05-24T03:22:58.717Z,54.05
2023-05-24T03:23:58.778Z,54.05
2023-05-24T03:24:58.837Z,54.07
2023-05-24T03:25:58.943Z,54.04
2023-05-24T03:26:58.978Z,54.07
2023-05-24T03:27:59.053Z,54.02
2023-05-24T03:28:59.108Z,54.03
2023-05-24T03:29:59.148Z,54.04
2023-05-24T03:30:59.208Z,54.03
2023-05-24T03:31:59.335Z,54.02
2023-05-24T03:32:59.367Z,54.00
2023-05-24T03:33:59.417Z,54.00
2023-05-24T03:34:59.473Z,53.99
2023-05-24T03:35:59.550Z,54.01
2023-05-24T03:36:59.554Z,54.00
2023-05-24T03:37:59.636Z,54.03
2023-05-24T03:38:59.670Z,53.97
2023-05-24T03:39:59.737Z,53.99
2023-05-24T03:40:59.820Z,53.96
2023-05-24T03:41:59.894Z,53.99
2023-05-24T03:43:00.673Z,53.98
2023-05-24T03:43:59.966Z,54.00
2023-05-24T03:45:00.044Z,53.94
2023-05-24T03:46:00.160Z,53.95
2023-05-24T03:47:00.151Z,53.97
2023-05-24T03:48:00.326Z,54.00
2023-05-24T03:49:00.290Z,53.96
2023-05-24T03:50:00.346Z,53.99
2023-05-24T03:51:00.410Z,53.97
2023-05-24T03:52:00.454Z,53.97
2023-05-24T03:53:00.512Z,53.96
2023-05-24T03:54:00.542Z,53.93
2023-05-24T03:55:00.631Z,53.94
2023-05-24T03:56:00.682Z,53.96
2023-05-24T03:57:00.742Z,53.92
2023-05-24T03:58:00.784Z,53.92
2023-05-24T03:59:00.921Z,53.94
2023-05-24T04:00:00.931Z,53.96
2023-05-24T04:01:00.967Z,53.92
2023-05-24T04:02:01.055Z,53.93
2023-05-24T04:03:01.178Z,53.92
2023-05-24T04:04:01.221Z,53.94
2023-05-24T04:05:01.186Z,53.91
2023-05-24T04:06:01.248Z,53.91
2023-05-24T04:07:01.317Z,53.91
2023-05-24T04:08:01.370Z,53.86
2023-05-24T04:09:01.415Z,53.89
2023-05-24T04:10:01.474Z,53.88
2023-05-24T04:11:01.524Z,53.90
2023-05-24T04:12:01.619Z,53.89
2023-05-24T04:13:01.667Z,53.86
2023-05-24T04:14:01.736Z,53.85
2023-05-24T04:15:01.782Z,53.86
2023-05-24T04:16:01.833Z,53.87
2023-05-24T04:17:01.911Z,53.86
2023-05-24T04:18:02.006Z,53.87
2023-05-24T04:19:02.139Z,53.85
2023-05-24T04:20:02.159Z,53.88
2023-05-24T04:21:02.105Z,53.87
2023-05-24T04:22:02.164Z,53.84
2023-05-24T04:23:02.251Z,53.85
2023-05-24T04:24:02.311Z,53.82
2023-05-24T04:25:02.397Z,53.84
2023-05-24T04:26:02.427Z,53.83
2023-05-24T04:27:02.459Z,53.84
2023-05-24T04:28:02.504Z,53.77
2023-05-24T04:29:02.568Z,53.77
2023-05-24T04:30:02.658Z,53.80
2023-05-24T04:31:02.723Z,53.75
2023-05-24T04:32:02.759Z,53.77
2023-05-24T04:33:02.800Z,53.76
2023-05-24T04:34:02.893Z,53.75
2023-05-24T04:35:02.927Z,53.73
2023-05-24T04:36:02.947Z,53.73
2023-05-24T04:37:03.049Z,53.70
2023-05-24T04:38:03.113Z,53.67
2023-05-24T04:39:03.196Z,53.65
2023-05-24T04:40:03.220Z,53.66
2023-05-24T04:41:03.267Z,53.66
2023-05-24T04:42:03.338Z,53.69
2023-05-24T04:43:03.388Z,53.64
2023-05-24T04:44:03.460Z,53.68
2023-05-24T04:45:03.530Z,53.65
2023-05-24T04:46:03.646Z,53.62
2023-05-24T04:47:03.683Z,53.61
2023-05-24T04:48:03.727Z,53.61
2023-05-24T04:49:03.737Z,53.61
2023-05-24T04:50:03.812Z,53.75
2023-05-24T04:51:03.834Z,53.80
2023-05-24T04:52:03.909Z,53.88
2023-05-24T04:53:03.977Z,53.94
2023-05-24T04:54:04.046Z,54.00
2023-05-24T04:55:04.088Z,54.06
2023-05-24T04:56:04.155Z,54.19
2023-05-24T04:57:04.223Z,54.37
2023-05-24T04:58:04.285Z,54.47
2023-05-24T04:59:04.325Z,54.66
2023-05-24T05:00:04.396Z,54.79
2023-05-24T05:01:04.488Z,54.89
2023-05-24T05:02:04.656Z,55.02
2023-05-24T05:03:04.705Z,55.08
2023-05-24T05:04:04.788Z,55.17
2023-05-24T05:05:04.705Z,55.31
2023-05-24T05:06:04.729Z,55.38
2023-05-24T05:07:04.768Z,55.47
2023-05-24T05:08:04.814Z,55.53
2023-05-24T05:09:04.822Z,55.53
2023-05-24T05:10:04.891Z,55.57
2023-05-24T05:11:04.963Z,55.63
2023-05-24T05:12:04.998Z,55.69
2023-05-24T05:13:05.028Z,55.77
2023-05-24T05:14:05.059Z,55.76
2023-05-24T05:15:05.069Z,55.82
2023-05-24T05:16:05.102Z,55.84
2023-05-24T05:17:05.087Z,55.87
2023-05-24T05:18:05.161Z,55.82
2023-05-24T05:19:05.134Z,55.87
2023-05-24T05:20:05.247Z,55.89
2023-05-24T05:21:05.144Z,55.84
2023-05-24T05:22:05.129Z,55.74
2023-05-24T05:23:05.132Z,55.74
2023-05-24T05:24:05.158Z,55.75
2023-05-24T05:25:05.150Z,55.69
2023-05-24T05:26:05.151Z,55.72
2023-05-24T05:27:05.193Z,55.88
2023-05-24T05:28:05.219Z,55.88
2023-05-24T05:29:05.222Z,55.83
2023-05-24T05:30:05.264Z,55.83
2023-05-24T05:31:05.255Z,55.88
2023-05-24T05:32:05.288Z,55.90
2023-05-24T05:33:05.382Z,55.93
2023-05-24T05:34:05.306Z,55.82
2023-05-24T05:35:05.300Z,55.92
2023-05-24T05:36:05.307Z,55.86
2023-05-24T05:37:05.377Z,55.84
2023-05-24T05:38:05.385Z,56.15
2023-05-24T05:39:05.444Z,55.97
2023-05-24T05:40:05.446Z,55.73
2023-05-24T05:41:05.517Z,55.57
2023-05-24T05:42:05.536Z,55.53
2023-05-24T05:43:05.577Z,55.46
2023-05-24T05:44:05.675Z,55.32
2023-05-24T05:45:05.697Z,55.23
2023-05-24T05:46:05.882Z,55.33
2023-05-24T05:47:05.904Z,55.18
2023-05-24T05:48:05.933Z,55.22
2023-05-24T05:49:05.928Z,55.18
2023-05-24T05:50:05.983Z,55.25
2023-05-24T05:51:06.045Z,55.42
2023-05-24T05:52:06.117Z,55.43
2023-05-24T05:53:06.161Z,55.39
2023-05-24T05:54:06.294Z,55.30
2023-05-24T05:55:06.262Z,55.54
2023-05-24T05:56:06.322Z,55.40
2023-05-24T05:57:06.366Z,55.50
2023-05-24T05:58:06.456Z,55.37
2023-05-24T05:59:06.491Z,55.30
2023-05-24T06:00:06.520Z,55.31
2023-05-24T06:01:06.589Z,55.33
2023-05-24T06:02:06.803Z,55.33
2023-05-24T06:03:06.800Z,55.44
2023-05-24T06:04:06.813Z,55.58
2023-05-24T06:05:06.789Z,55.62
2023-05-24T06:06:06.845Z,55.69
2023-05-24T06:07:06.893Z,55.75
2023-05-24T06:08:06.956Z,55.75
2023-05-24T06:09:06.990Z,55.88
2023-05-24T06:10:07.065Z,55.92
2023-05-24T06:11:07.245Z,55.92
2023-05-24T06:12:07.194Z,55.98
2023-05-24T06:13:07.215Z,56.02
2023-05-24T06:14:07.271Z,56.05
2023-05-24T06:15:07.326Z,56.10
2023-05-24T06:16:07.417Z,56.19
2023-05-24T06:17:07.454Z,56.21
2023-05-24T06:18:07.554Z,56.29
2023-05-24T06:19:07.566Z,56.25
2023-05-24T06:20:07.704Z,56.25
2023-05-24T06:21:07.739Z,56.24
2023-05-24T06:22:07.799Z,56.22
2023-05-24T06:23:07.945Z,56.26
2023-05-24T06:24:07.882Z,56.23
2023-05-24T06:25:07.972Z,56.27
2023-05-24T06:26:08.033Z,56.24
2023-05-24T06:27:08.048Z,56.20
2023-05-24T06:28:08.137Z,56.13
2023-05-24T06:29:08.157Z,56.10
2023-05-24T06:30:08.290Z,56.14
2023-05-24T06:31:08.379Z,56.08
2023-05-24T06:32:08.441Z,56.10
2023-05-24T06:33:08.447Z,56.09
2023-05-24T06:34:08.491Z,56.03
2023-05-24T06:35:08.612Z,56.07
2023-05-24T06:36:08.629Z,56.00
2023-05-24T06:37:08.680Z,56.06
2023-05-24T06:38:08.753Z,56.07
2023-05-24T06:39:08.800Z,56.07
2023-05-24T06:40:08.871Z,56.06
2023-05-24T06:41:08.930Z,56.04
2023-05-24T06:42:09.095Z,55.95
2023-05-24T06:43:09.173Z,55.85
2023-05-24T06:44:09.114Z,55.91
2023-05-24T06:45:09.134Z,55.84
2023-05-24T06:46:09.203Z,55.93
2023-05-24T06:47:09.334Z,55.97
2023-05-24T06:48:09.433Z,56.06
2023-05-24T06:49:09.363Z,56.27
2023-05-24T06:50:09.445Z,56.48
2023-05-24T06:51:09.486Z,56.34
2023-05-24T06:52:09.556Z,56.18
2023-05-24T06:53:09.629Z,56.01
2023-05-24T06:54:09.690Z,55.98
2023-05-24T06:55:09.722Z,55.88
2023-05-24T06:56:09.782Z,55.83
2023-05-24T06:57:09.896Z,55.69
2023-05-24T06:58:09.998Z,55.61
2023-05-24T06:59:09.906Z,55.60
2023-05-24T07:00:09.976Z,55.58
2023-05-24T07:01:10.055Z,55.59
2023-05-24T07:02:10.249Z,55.59
2023-05-24T07:03:10.176Z,55.53
2023-05-24T07:04:10.439Z,55.56
2023-05-24T07:05:10.216Z,55.51
2023-05-24T07:06:10.255Z,55.47
2023-05-24T07:07:10.377Z,55.46
2023-05-24T07:08:10.427Z,55.44
2023-05-24T07:09:10.500Z,55.40
2023-05-24T07:10:10.430Z,55.39
2023-05-24T07:11:10.526Z,55.40
2023-05-24T07:12:10.525Z,55.41
2023-05-24T07:13:10.616Z,55.42
2023-05-24T07:14:10.677Z,55.46
2023-05-24T07:15:10.686Z,55.49
2023-05-24T07:16:10.732Z,55.50
2023-05-24T07:17:10.820Z,55.49
2023-05-24T07:18:10.845Z,55.50
2023-05-24T07:19:10.972Z,55.47
2023-05-24T07:20:11.040Z,55.56
2023-05-24T07:21:10.976Z,55.55
2023-05-24T07:22:11.070Z,55.58
2023-05-24T07:23:11.059Z,55.56
2023-05-24T07:24:11.203Z,55.59
2023-05-24T07:25:11.164Z,55.47
2023-05-24T07:26:11.218Z,55.50
2023-05-24T07:27:11.268Z,55.45
2023-05-24T07:28:11.312Z,55.29
2023-05-24T07:29:11.363Z,55.26
2023-05-24T07:30:23.472Z,55.18
2023-05-24T07:31:12.436Z,55.14
2023-05-24T07:32:11.586Z,55.12
2023-05-24T07:33:11.478Z,55.05
2023-05-24T07:34:11.373Z,55.05
2023-05-24T07:35:11.370Z,55.02
2023-05-24T07:36:11.510Z,54.95
2023-05-24T07:37:11.364Z,54.95
2023-05-24T07:38:11.369Z,55.02
2023-05-24T07:39:11.390Z,55.02
2023-05-24T07:40:11.376Z,54.97
2023-05-24T07:41:11.321Z,55.11
2023-05-24T07:42:11.368Z,55.28
2023-05-24T07:43:11.404Z,55.28
2023-05-24T07:44:11.481Z,55.30
2023-05-24T07:45:11.594Z,55.20
2023-05-24T07:46:11.612Z,55.02
2023-05-24T07:47:11.620Z,55.19
2023-05-24T07:48:12.031Z,55.08
2023-05-24T07:49:11.703Z,55.05
2023-05-24T07:50:11.742Z,54.96
2023-05-24T07:51:11.892Z,54.77
2023-05-24T07:52:11.970Z,54.73
2023-05-24T07:53:11.887Z,54.67
2023-05-24T07:54:12.116Z,54.62
2023-05-24T07:55:11.942Z,54.58
2023-05-24T07:56:11.972Z,54.67
2023-05-24T07:57:12.007Z,54.69
2023-05-24T07:58:12.054Z,54.67
2023-05-24T07:59:12.095Z,54.70
2023-05-24T08:00:12.162Z,54.72
2023-05-24T08:01:12.219Z,54.73
2023-05-24T08:02:12.212Z,54.72
2023-05-24T08:03:12.268Z,54.76
2023-05-24T08:04:12.245Z,54.74
2023-05-24T08:05:12.234Z,54.77
2023-05-24T08:06:12.267Z,54.85
2023-05-24T08:07:12.307Z,54.84
2023-05-24T08:08:12.314Z,55.01
2023-05-24T08:09:12.313Z,55.12
2023-05-24T08:10:12.354Z,55.05
2023-05-24T08:11:12.405Z,55.07
2023-05-24T08:12:13.423Z,55.05
2023-05-24T08:13:12.440Z,55.07
2023-05-24T08:14:12.443Z,55.08
2023-05-24T08:15:12.487Z,55.15
2023-05-24T08:16:12.583Z,55.16
2023-05-24T08:17:12.576Z,55.31
2023-05-24T08:18:12.672Z,56.00
2023-05-24T08:19:12.661Z,56.03
2023-05-24T08:20:12.768Z,55.68
2023-05-24T08:21:12.719Z,55.66
2023-05-24T08:22:12.783Z,55.74
2023-05-24T08:23:12.796Z,55.78
2023-05-24T08:24:12.897Z,55.62
2023-05-24T08:25:12.895Z,56.00
2023-05-24T08:26:13.001Z,56.13
2023-05-24T08:27:13.054Z,55.97
2023-05-24T08:28:13.106Z,55.97
2023-05-24T08:29:13.166Z,56.06
2023-05-24T08:30:13.233Z,55.95
2023-05-24T08:31:13.327Z,55.81
2023-05-24T08:32:13.400Z,55.71
2023-05-24T08:33:13.383Z,55.61
2023-05-24T08:34:13.385Z,55.57
2023-05-24T08:35:21.126Z,55.53
2023-05-24T08:36:14.522Z,55.50
2023-05-24T08:37:16.113Z,55.49
2023-05-24T08:38:13.419Z,55.48
2023-05-24T08:39:13.454Z,55.55
2023-05-24T08:40:13.432Z,55.44
2023-05-24T08:41:13.469Z,55.52
2023-05-24T08:42:13.413Z,55.56
2023-05-24T08:43:13.447Z,55.56
2023-05-24T08:44:13.475Z,55.53
2023-05-24T08:45:13.424Z,55.54
2023-05-24T08:46:13.497Z,55.54
2023-05-24T08:47:13.399Z,55.51
2023-05-24T08:48:13.509Z,55.43
2023-05-24T08:49:13.415Z,55.49
2023-05-24T08:50:13.429Z,55.46
2023-05-24T08:51:13.414Z,55.33
2023-05-24T08:52:13.454Z,55.38
2023-05-24T08:53:13.507Z,55.41
2023-05-24T08:54:13.386Z,55.30
2023-05-24T08:55:13.408Z,55.26
2023-05-24T08:56:13.393Z,55.15
2023-05-24T08:57:13.396Z,55.13
2023-05-24T08:58:13.367Z,55.26
2023-05-24T08:59:13.367Z,55.16
2023-05-24T09:00:13.356Z,55.03
2023-05-24T09:01:13.399Z,55.02
2023-05-24T09:02:13.472Z,55.01
2023-05-24T09:03:13.433Z,55.00
2023-05-24T09:04:13.414Z,55.03
2023-05-24T09:05:13.344Z,55.02
2023-05-24T09:06:13.350Z,54.88
2023-05-24T09:07:13.355Z,54.59
2023-05-24T09:08:13.323Z,54.61
2023-05-24T09:09:13.281Z,54.58
2023-05-24T09:10:13.308Z,54.60
2023-05-24T09:11:13.272Z,54.71
2023-05-24T09:12:19.121Z,54.79
2023-05-24T09:13:14.278Z,54.86
2023-05-24T09:14:13.266Z,54.97
2023-05-24T09:15:13.259Z,54.95
2023-05-24T09:16:13.315Z,55.02
2023-05-24T09:17:13.257Z,54.88
2023-05-24T09:18:13.253Z,55.22
2023-05-24T09:19:13.246Z,54.88
2023-05-24T09:20:13.304Z,54.91
2023-05-24T09:21:13.232Z,54.97
2023-05-24T09:22:13.211Z,54.88
2023-05-24T09:23:13.270Z,54.83
2023-05-24T09:24:13.224Z,54.76
2023-05-24T09:25:13.315Z,54.68
2023-05-24T09:26:13.236Z,54.62
2023-05-24T09:27:13.220Z,54.58
2023-05-24T09:28:13.213Z,54.57
2023-05-24T09:29:13.194Z,54.55
2023-05-24T09:30:13.242Z,54.45
2023-05-24T09:31:13.219Z,54.47
2023-05-24T09:32:13.161Z,54.47
2023-05-24T09:33:13.184Z,54.46
2023-05-24T09:34:13.166Z,54.46
2023-05-24T09:35:13.177Z,54.39
2023-05-24T09:36:13.216Z,54.49
2023-05-24T09:37:13.163Z,54.46
2023-05-24T09:38:13.170Z,54.41
2023-05-24T09:39:13.151Z,54.44
2023-05-24T09:40:13.150Z,54.43
2023-05-24T09:41:13.199Z,54.49
2023-05-24T09:42:13.245Z,54.65
2023-05-24T09:43:13.247Z,54.62
2023-05-24T09:44:13.281Z,54.53
2023-05-24T09:45:13.347Z,54.45
2023-05-24T09:46:13.320Z,54.45
2023-05-24T09:47:13.366Z,54.60
2023-05-24T09:48:13.535Z,54.58
2023-05-24T09:49:13.416Z,54.65
2023-05-24T09:50:14.066Z,54.54
2023-05-24T09:51:13.505Z,54.55
2023-05-24T09:52:13.478Z,54.50
2023-05-24T09:53:13.521Z,54.58
2023-05-24T09:54:13.508Z,54.57
2023-05-24T09:55:13.579Z,54.72
2023-05-24T09:56:13.596Z,54.80
2023-05-24T09:57:13.608Z,54.82
2023-05-24T09:58:13.604Z,54.84
2023-05-24T09:59:13.622Z,54.76
2023-05-24T10:00:13.644Z,54.85
2023-05-24T10:01:13.689Z,54.80
2023-05-24T10:02:13.690Z,54.74
2023-05-24T10:03:14.001Z,54.67
2023-05-24T10:04:13.783Z,54.59
2023-05-24T10:05:13.726Z,54.55
2023-05-24T10:06:13.765Z,54.58
2023-05-24T10:07:13.764Z,54.61
2023-05-24T10:08:13.822Z,54.67
2023-05-24T10:09:13.835Z,54.69
2023-05-24T10:10:13.833Z,54.68
2023-05-24T10:11:13.870Z,54.78
2023-05-24T10:12:13.905Z,54.77
2023-05-24T10:13:13.889Z,54.73
2023-05-24T10:14:13.963Z,54.64
2023-05-24T10:15:14.036Z,54.54
2023-05-24T10:16:14.057Z,54.58
2023-05-24T10:17:14.150Z,54.50
2023-05-24T10:18:14.518Z,54.40
2023-05-24T10:19:14.096Z,54.25
2023-05-24T10:20:14.272Z,54.18
2023-05-24T10:21:14.273Z,54.19
2023-05-24T10:22:14.174Z,54.23
2023-05-24T10:23:14.150Z,54.32
2023-05-24T10:24:14.281Z,54.29
2023-05-24T10:25:14.199Z,54.20
2023-05-24T10:26:14.247Z,54.04
2023-05-24T10:27:14.275Z,54.11
2023-05-24T10:28:14.314Z,54.16
2023-05-24T10:29:21.281Z,54.17
2023-05-24T10:30:14.379Z,54.19
2023-05-24T10:31:14.340Z,54.00
2023-05-24T10:32:14.266Z,53.87
2023-05-24T10:33:14.364Z,53.79
2023-05-24T10:34:14.269Z,53.73
2023-05-24T10:35:14.244Z,53.99
2023-05-24T10:36:14.290Z,54.09
2023-05-24T10:37:14.297Z,54.11
2023-05-24T10:38:14.348Z,54.15
2023-05-24T10:39:14.251Z,54.19
2023-05-24T10:40:14.282Z,54.10
2023-05-24T10:41:14.259Z,54.32
2023-05-24T10:42:14.197Z,54.23
2023-05-24T10:43:14.210Z,54.27
2023-05-24T10:44:14.298Z,54.23
2023-05-24T10:45:14.214Z,54.13
2023-05-24T10:46:14.318Z,54.09
2023-05-24T10:47:14.212Z,54.01
2023-05-24T10:48:14.264Z,53.94
2023-05-24T10:49:14.175Z,53.93
2023-05-24T10:50:14.172Z,53.93
2023-05-24T10:51:14.162Z,53.97
2023-05-24T10:52:14.166Z,53.97
2023-05-24T10:53:14.160Z,53.96
2023-05-24T10:54:14.148Z,53.96
2023-05-24T10:55:14.136Z,54.04
2023-05-24T10:56:14.102Z,54.18
2023-05-24T10:57:14.100Z,54.17
2023-05-24T10:58:14.103Z,54.42
2023-05-24T10:59:14.110Z,54.62
2023-05-24T11:00:17.975Z,54.51
2023-05-24T11:01:15.107Z,54.62
2023-05-24T11:02:14.300Z,54.63
2023-05-24T11:03:14.125Z,54.60
2023-05-24T11:04:14.054Z,54.58
2023-05-24T11:05:14.123Z,54.64
2023-05-24T11:06:14.079Z,54.66
2023-05-24T11:07:14.606Z,54.75
2023-05-24T11:08:14.093Z,54.94
2023-05-24T11:09:14.071Z,55.01
2023-05-24T11:10:14.072Z,55.18
2023-05-24T11:11:23.359Z,55.33
2023-05-24T11:12:15.039Z,55.18
2023-05-24T11:13:14.056Z,55.19
2023-05-24T11:14:14.085Z,55.48
2023-05-24T11:15:14.070Z,55.59
2023-05-24T11:16:14.097Z,55.75
2023-05-24T11:17:14.058Z,55.46
2023-05-24T11:18:14.125Z,55.43
2023-05-24T11:19:14.058Z,55.35
2023-05-24T11:20:14.002Z,55.29
2023-05-24T11:21:13.967Z,55.40
2023-05-24T11:22:13.958Z,55.30
2023-05-24T11:23:13.999Z,55.24
2023-05-24T11:24:13.961Z,55.20
2023-05-24T11:25:13.986Z,55.21
2023-05-24T11:26:13.957Z,55.19
2023-05-24T11:27:13.924Z,55.27
2023-05-24T11:28:13.995Z,55.20
2023-05-24T11:29:13.898Z,55.19
2023-05-24T11:30:13.949Z,55.19
2023-05-24T11:31:13.953Z,55.30
2023-05-24T11:32:14.169Z,55.47
2023-05-24T11:33:14.105Z,55.49
2023-05-24T11:34:14.116Z,55.52
2023-05-24T11:35:14.170Z,55.30
2023-05-24T11:36:14.212Z,55.18
2023-05-24T11:37:16.896Z,55.18
2023-05-24T11:38:14.238Z,55.26
2023-05-24T11:39:14.245Z,55.30
2023-05-24T11:40:14.217Z,55.29
2023-05-24T11:41:14.210Z,55.33
2023-05-24T11:42:14.211Z,55.52
2023-05-24T11:43:16.691Z,55.49
2023-05-24T11:44:14.183Z,55.54
2023-05-24T11:45:14.259Z,55.54
2023-05-24T11:46:14.256Z,55.54
2023-05-24T11:47:14.194Z,55.55
2023-05-24T11:48:14.180Z,55.59
2023-05-24T11:49:14.168Z,55.59
2023-05-24T11:50:14.166Z,55.65
2023-05-24T11:51:14.185Z,55.69
2023-05-24T11:52:14.147Z,55.71
2023-05-24T11:53:14.150Z,55.70
2023-05-24T11:54:14.119Z,55.71
2023-05-24T11:55:15.696Z,55.64
2023-05-24T11:56:14.251Z,55.62
2023-05-24T11:57:14.358Z,55.58
2023-05-24T11:58:14.328Z,55.57
2023-05-24T11:59:14.434Z,55.56
2023-05-24T12:00:14.434Z,55.56
2023-05-24T12:01:14.474Z,55.59
2023-05-24T12:02:14.632Z,55.59
2023-05-24T12:03:14.747Z,55.54
2023-05-24T12:04:14.774Z,55.58
2023-05-24T12:05:14.683Z,55.55
2023-05-24T12:06:14.736Z,55.56
2023-05-24T12:07:14.792Z,55.57
2023-05-24T12:08:14.832Z,55.55
2023-05-24T12:09:14.848Z,55.78
2023-05-24T12:10:14.880Z,55.79
2023-05-24T12:11:14.958Z,55.72
2023-05-24T12:12:14.969Z,55.78
2023-05-24T12:13:15.025Z,55.72
2023-05-24T12:14:15.071Z,55.72
2023-05-24T12:15:15.167Z,55.99
2023-05-24T12:16:15.175Z,56.11
2023-05-24T12:17:15.202Z,56.54
2023-05-24T12:18:15.319Z,56.25
2023-05-24T12:20:15.387Z,55.97
2023-05-24T12:21:15.336Z,56.27
2023-05-24T12:22:15.403Z,56.10
2023-05-24T12:23:15.422Z,56.01
2023-05-24T12:24:16.107Z,55.87
2023-05-24T12:25:15.482Z,55.76
2023-05-24T12:26:15.526Z,55.72
2023-05-24T12:27:15.554Z,55.70
2023-05-24T12:28:15.625Z,55.56
2023-05-24T12:29:15.615Z,55.69
2023-05-24T12:30:15.659Z,55.79
2023-05-24T12:31:15.681Z,55.76
2023-05-24T12:32:15.997Z,55.65
2023-05-24T12:33:15.740Z,55.57
2023-05-24T12:34:15.791Z,55.51
2023-05-24T12:35:15.833Z,55.45
2023-05-24T12:36:15.880Z,55.35
2023-05-24T12:37:15.919Z,55.37
2023-05-24T12:38:15.920Z,55.42
2023-05-24T12:39:15.958Z,55.52
2023-05-24T12:40:15.969Z,55.56
2023-05-24T12:41:16.009Z,55.44
2023-05-24T12:42:16.049Z,55.39
2023-05-24T12:43:16.083Z,55.50
2023-05-24T12:44:16.122Z,55.40
2023-05-24T12:45:16.196Z,55.42
2023-05-24T12:46:16.351Z,55.41
2023-05-24T12:47:16.277Z,55.35
2023-05-24T12:48:16.351Z,55.34
2023-05-24T12:49:16.281Z,55.32
2023-05-24T12:50:16.345Z,55.30
2023-05-24T12:51:16.388Z,55.23
2023-05-24T12:52:16.691Z,55.23
2023-05-24T12:53:16.454Z,55.16
2023-05-24T12:54:16.465Z,55.16